Doniphan, Arkansas
Current Conditions -  °F | °C
As of 1:56 AM on Saturday 01 Nov 2014 (Local Time) from KSRC Reporting Station
Clear Clear  
Wind Chill: 31°   Ceiling: Unl
Heat Index: 37°   Visibility: 10mi
Dew Point: 22°   Wind: 8mph
Humidity: 54%   Direction: 350°N
Pressure: 30.4"   Gusts: NA
Location:  35.2662°N, 91.8491°W
Report Text: KSRC 010656Z AUTO 35007KT 10SM CLR 03/M06 A3040 RMK AO2 SLP303 T00281056 TSNO
Loading
Personal Weather Stations






























Interactive Weather Map
Tropical Storm Tracking
New forecast layout! Learn more

10-Day Weather Forecast

Advertisements
Track Severe Weather on mobile